Aeroporto :
LOGIN :

Iscrizione | Disclaimer

   EN    FR    IT 

 










Sommario :    VFR   VFR Marginale   IFR   IFR Intensivo   IFR Molto Intensivo
Visibilità : 
Base nubi : 
>= 8 km
>= 3000ft
5 / 8 km
1000 / 3000 ft
1500m / 5 km
500 / 1000 ft
800 / 1500m
200 / 500 ft
< 800m
< 200 ft
Simboli :   Temporali  Nebbia  Neve Forte  Precipitazioni Forti  Vento > 20 kt
SIGMETs :   Varie  Temporali  Ghiacco  Turbolenza  Onda orograficha  Ceneri Vulcaniche






- Altitudine del aeroporto : 26 ft
- Codice IATA : BIA


LFKB - Bastia

ULTIMO METAR :
  • 192100Z AUTO 35004KT CAVOK 22/21 Q1015 NOSIG

METARs OBSOLETI :
  • 192030Z AUTO VRB02KT 9000 NSC 22/21 Q1014 NOSIG
  • 192000Z AUTO 00000KT CAVOK 22/21 Q1014 NOSIG
  • 191930Z AUTO 13004KT CAVOK 23/21 Q1014 NOSIG
  • 191900Z AUTO 14004KT CAVOK 23/21 Q1014 NOSIG
  • 191830Z AUTO 15005KT CAVOK 24/21 Q1014 NOSIG

TAF TAF LFKB
Valido dal 19 a 21 ore il 20 a 21 ore UTC


192000Z 1921/2021 VRB05KT CAVOK TX30/2013Z TN19/2003Z
PROB30
TEMPO 2004/2007 VRB15G25KT TS FEW060CB BKN110
BECMG 2007/2009 15015G25KT
TEMPO 2011/2015 15020G35KT
BECMG 2019/2021 36012KT
ATIS : +33 4 95 59 19 40



MetMap, La meteo Aeronautica in un colpo d'occhio ! - Copyright ORBIFLY Dicembre 2007 - Disclaimer

ORBIFLY MET'MAP TEAM :

Programmazione e sviluppo : Alexandra Zaïnal
Concezione : Baudouin d'Aumeries
Aiuto per la programmazione : Marc-Olivier Méhu
Supporto tecnico e logistico : Manuel Goepfert
Aiuto per la traduzione : Arnaldo La Scala

Contatto : metmap@orbifly.com




FONTI E CREDITI :

   NOAA